createdAt,value
2019-05-18T00:00:18.488Z,68.06
2019-05-18T00:02:45.807Z,66.34
2019-05-18T00:05:13.725Z,68.91
2019-05-18T00:07:41.067Z,69.42
2019-05-18T00:10:09.189Z,66.88
2019-05-18T00:12:36.511Z,69.93
2019-05-18T00:15:04.593Z,72.00
2019-05-18T00:17:31.925Z,68.96
2019-05-18T00:19:59.274Z,71.70
2019-05-18T00:22:26.646Z,69.35
2019-05-18T00:24:53.914Z,68.31
2019-05-18T00:27:21.260Z,70.25
2019-05-18T00:29:48.660Z,69.15
2019-05-18T00:32:16.016Z,67.82
2019-05-18T00:34:43.346Z,67.71
2019-05-18T00:37:10.795Z,68.59
2019-05-18T00:39:38.126Z,70.10
2019-05-18T00:42:05.431Z,72.44
2019-05-18T00:44:32.805Z,70.70
2019-05-18T00:47:00.117Z,70.26
2019-05-18T00:49:27.381Z,71.56
2019-05-18T00:51:54.725Z,70.83
2019-05-18T00:54:22.024Z,70.35
2019-05-18T00:56:49.351Z,69.19
2019-05-18T00:59:17.245Z,72.15
2019-05-18T01:01:44.632Z,71.63
2019-05-18T01:04:11.945Z,72.83
2019-05-18T01:06:39.279Z,72.32
2019-05-18T01:09:06.725Z,70.12
2019-05-18T01:11:34.046Z,71.37
2019-05-18T01:14:01.401Z,72.35
2019-05-18T01:16:28.725Z,71.94
2019-05-18T01:18:56.062Z,71.23
2019-05-18T01:21:23.345Z,71.55
2019-05-18T01:23:50.785Z,70.30
2019-05-18T01:26:18.081Z,73.54
2019-05-18T01:28:45.402Z,74.83
2019-05-18T01:31:12.689Z,73.29
2019-05-18T01:33:40.005Z,72.96
2019-05-18T01:36:07.368Z,74.15
2019-05-18T01:38:34.685Z,73.08
2019-05-18T01:41:02.007Z,71.62
2019-05-18T01:43:29.325Z,74.73
2019-05-18T01:45:56.633Z,72.45
2019-05-18T01:48:23.949Z,72.68
2019-05-18T01:50:51.313Z,73.30
2019-05-18T01:53:18.605Z,73.63
2019-05-18T01:55:45.928Z,73.80
2019-05-18T01:58:13.257Z,72.77
2019-05-18T02:00:40.588Z,71.72
2019-05-18T02:03:07.895Z,71.02
2019-05-18T02:05:35.285Z,71.11
2019-05-18T02:08:02.603Z,73.62
2019-05-18T02:10:29.926Z,71.07
2019-05-18T02:12:57.300Z,72.98
2019-05-18T02:15:24.616Z,71.73
2019-05-18T02:17:51.914Z,72.48
2019-05-18T02:20:19.269Z,72.61
2019-05-18T02:22:46.558Z,72.49
2019-05-18T02:25:14.765Z,73.34
2019-05-18T02:27:42.116Z,73.80
2019-05-18T02:30:09.755Z,75.57
2019-05-18T02:32:37.100Z,72.59
2019-05-18T02:35:04.867Z,73.93
2019-05-18T02:37:32.168Z,73.34
2019-05-18T02:39:59.485Z,72.43
2019-05-18T02:42:30.735Z,73.17
2019-05-18T02:44:56.687Z,71.85
2019-05-18T02:47:24.001Z,72.63
2019-05-18T02:49:51.360Z,72.17
2019-05-18T02:52:18.642Z,72.78
2019-05-18T02:54:45.965Z,72.09
2019-05-18T02:57:13.295Z,73.83
2019-05-18T02:59:40.634Z,73.56
2019-05-18T03:02:07.945Z,72.99
2019-05-18T03:04:35.304Z,72.96
2019-05-18T03:07:02.701Z,72.32
2019-05-18T03:09:30.092Z,72.93
2019-05-18T03:11:57.426Z,74.69
2019-05-18T03:14:24.721Z,73.99
2019-05-18T03:16:52.037Z,75.28
2019-05-18T03:19:19.386Z,74.09
2019-05-18T03:21:46.803Z,76.31
2019-05-18T03:24:14.111Z,76.29
2019-05-18T03:26:41.425Z,75.68
2019-05-18T03:29:08.719Z,75.11
2019-05-18T03:31:36.041Z,75.54
2019-05-18T03:34:03.372Z,74.37
2019-05-18T03:36:30.718Z,75.39
2019-05-18T03:38:57.998Z,73.79
2019-05-18T03:41:25.393Z,74.88
2019-05-18T03:43:52.707Z,75.21
2019-05-18T03:46:23.821Z,76.13
2019-05-18T03:48:49.243Z,75.20
2019-05-18T03:51:16.549Z,75.23
2019-05-18T03:53:43.847Z,74.75
2019-05-18T03:56:11.184Z,74.92
2019-05-18T03:58:38.515Z,74.91
2019-05-18T04:01:05.818Z,73.88
2019-05-18T04:03:33.201Z,73.99
2019-05-18T04:06:00.630Z,72.59
2019-05-18T04:08:27.929Z,73.14
2019-05-18T04:10:55.277Z,75.38
2019-05-18T04:13:22.590Z,74.58
2019-05-18T04:15:49.865Z,73.53
2019-05-18T04:18:17.242Z,74.27
2019-05-18T04:20:44.566Z,73.55
2019-05-18T04:23:11.870Z,73.51
2019-05-18T04:25:43.307Z,74.81
2019-05-18T04:28:08.486Z,74.76
2019-05-18T04:30:35.807Z,76.41
2019-05-18T04:33:03.191Z,75.77
2019-05-18T04:35:30.508Z,74.76
2019-05-18T04:37:57.800Z,77.58
2019-05-18T04:40:25.184Z,76.02
2019-05-18T04:42:52.512Z,75.21
2019-05-18T04:45:19.790Z,76.18
2019-05-18T04:47:48.615Z,74.96
2019-05-18T04:50:16.474Z,75.93
2019-05-18T04:52:43.766Z,73.53
2019-05-18T04:55:11.131Z,74.63
2019-05-18T04:57:38.473Z,76.59
2019-05-18T05:00:06.000Z,77.55
2019-05-18T05:02:33.385Z,77.51
2019-05-18T05:05:00.770Z,75.08
2019-05-18T05:07:28.101Z,74.05
2019-05-18T05:09:55.424Z,73.97
2019-05-18T05:12:22.706Z,75.27
2019-05-18T05:14:49.996Z,75.30
2019-05-18T05:17:17.346Z,72.99
2019-05-18T05:19:44.665Z,73.62
2019-05-18T05:22:11.986Z,74.02
2019-05-18T05:24:39.355Z,73.43
2019-05-18T05:27:06.645Z,75.37
2019-05-18T05:29:34.018Z,77.62
2019-05-18T05:32:01.374Z,76.28
2019-05-18T05:34:31.117Z,77.27
2019-05-18T05:36:58.538Z,75.72
2019-05-18T05:39:26.055Z,75.77
2019-05-18T05:41:53.455Z,76.30
2019-05-18T05:44:20.831Z,73.48
2019-05-18T05:46:48.262Z,74.44
2019-05-18T05:49:15.608Z,74.29
2019-05-18T05:51:43.020Z,73.94
2019-05-18T05:54:10.468Z,72.53
2019-05-18T05:56:37.882Z,73.03
2019-05-18T05:59:05.361Z,73.29
2019-05-18T06:01:32.813Z,72.59
2019-05-18T06:04:00.145Z,72.77
2019-05-18T06:06:27.434Z,72.67
2019-05-18T06:08:54.746Z,70.85
2019-05-18T06:11:22.195Z,71.76
2019-05-18T06:13:49.508Z,71.70
2019-05-18T06:16:16.896Z,70.86
2019-05-18T06:18:44.299Z,70.60
2019-05-18T06:21:11.624Z,70.32
2019-05-18T06:23:39.027Z,70.08
2019-05-18T06:26:06.356Z,69.41
2019-05-18T06:28:33.746Z,70.78
2019-05-18T06:31:01.125Z,69.60
2019-05-18T06:33:28.527Z,71.19
2019-05-18T06:35:55.861Z,71.87
2019-05-18T06:38:23.259Z,71.76
2019-05-18T06:40:50.703Z,71.39
2019-05-18T06:43:18.153Z,72.00
2019-05-18T06:45:45.678Z,71.09
2019-05-18T06:48:13.032Z,71.57
2019-05-18T06:50:40.433Z,70.31
2019-05-18T06:53:08.194Z,70.60
2019-05-18T06:55:35.533Z,70.46
2019-05-18T06:58:03.188Z,69.00
2019-05-18T07:00:30.631Z,68.83
2019-05-18T07:02:58.006Z,69.19
2019-05-18T07:05:25.346Z,68.37
2019-05-18T07:07:54.496Z,68.58
2019-05-18T07:10:21.807Z,67.55
2019-05-18T07:12:49.148Z,65.75
2019-05-18T07:15:16.827Z,65.40
2019-05-18T07:17:44.156Z,66.87
2019-05-18T07:20:12.643Z,65.49
2019-05-18T07:22:40.077Z,63.30
2019-05-18T07:25:07.722Z,67.21
2019-05-18T07:27:35.327Z,64.25
2019-05-18T07:30:03.056Z,61.83
2019-05-18T07:32:30.425Z,61.94
2019-05-18T07:34:57.810Z,63.09
2019-05-18T07:37:25.247Z,62.44
2019-05-18T07:39:52.592Z,63.36
2019-05-18T07:42:19.930Z,60.07
2019-05-18T07:44:47.331Z,59.40
2019-05-18T07:47:14.719Z,59.40
2019-05-18T07:49:42.139Z,59.37
2019-05-18T07:52:09.536Z,60.34
2019-05-18T07:54:36.952Z,58.06
2019-05-18T07:57:04.276Z,59.75
2019-05-18T07:59:31.715Z,57.82
2019-05-18T08:01:59.078Z,58.63
2019-05-18T08:04:26.445Z,58.17
2019-05-18T08:06:53.835Z,56.98
2019-05-18T08:09:21.197Z,56.50
2019-05-18T08:11:48.593Z,54.29
2019-05-18T08:14:16.581Z,56.59
2019-05-18T08:16:44.116Z,56.19
2019-05-18T08:19:11.487Z,54.96
2019-05-18T08:21:52.190Z,54.21
2019-05-18T08:24:08.201Z,53.33
2019-05-18T08:26:35.576Z,53.44
2019-05-18T08:29:02.996Z,52.44
2019-05-18T08:31:30.365Z,51.63
2019-05-18T08:33:57.714Z,51.96
2019-05-18T08:36:25.174Z,52.41
2019-05-18T08:38:52.541Z,53.98
2019-05-18T08:41:19.853Z,50.97
2019-05-18T08:43:47.270Z,52.40
2019-05-18T08:46:14.673Z,53.40
2019-05-18T08:48:42.055Z,52.51
2019-05-18T08:51:09.438Z,49.96
2019-05-18T08:53:36.833Z,49.09
2019-05-18T08:56:04.169Z,50.08
2019-05-18T08:58:31.566Z,48.80
2019-05-18T09:00:58.945Z,49.66
2019-05-18T09:03:26.433Z,48.32
2019-05-18T09:05:53.817Z,49.46
2019-05-18T09:08:21.182Z,49.92
2019-05-18T09:10:48.596Z,49.33
2019-05-18T09:13:16.000Z,50.94
2019-05-18T09:15:44.047Z,52.64
2019-05-18T09:18:11.440Z,51.68
2019-05-18T09:20:38.972Z,49.34
2019-05-18T09:23:06.345Z,48.89
2019-05-18T09:25:33.664Z,48.94
2019-05-18T09:28:01.063Z,49.55
2019-05-18T09:30:28.425Z,49.90
2019-05-18T09:32:55.732Z,46.29
2019-05-18T09:35:23.151Z,45.19
2019-05-18T09:37:50.549Z,46.80
2019-05-18T09:40:17.948Z,44.45
2019-05-18T09:42:45.405Z,44.43
2019-05-18T09:45:13.572Z,40.70
2019-05-18T09:47:40.896Z,46.66
2019-05-18T09:50:08.586Z,46.73
2019-05-18T09:52:44.999Z,48.78
2019-05-18T09:55:06.148Z,47.69
2019-05-18T09:57:33.550Z,48.18
2019-05-18T10:00:00.926Z,44.39
2019-05-18T10:02:28.396Z,50.33
2019-05-18T10:04:55.825Z,47.35
2019-05-18T10:07:23.211Z,42.89
2019-05-18T10:09:50.571Z,41.38
2019-05-18T10:12:18.051Z,42.66
2019-05-18T10:14:45.486Z,41.43
2019-05-18T10:17:12.831Z,40.68
2019-05-18T10:19:40.228Z,46.65
2019-05-18T10:22:07.614Z,49.37
2019-05-18T10:24:35.007Z,51.46
2019-05-18T10:27:02.426Z,44.34
2019-05-18T10:29:29.835Z,49.16
2019-05-18T10:31:57.194Z,43.14
2019-05-18T10:34:24.638Z,43.67
2019-05-18T10:36:52.088Z,41.43
2019-05-18T10:39:19.421Z,42.44
2019-05-18T10:41:46.880Z,40.01
2019-05-18T10:44:14.161Z,40.75
2019-05-18T10:46:41.514Z,40.76
2019-05-18T10:49:08.948Z,39.86
2019-05-18T10:51:36.293Z,40.21
2019-05-18T10:54:03.702Z,40.77
2019-05-18T10:56:31.402Z,42.72
2019-05-18T10:58:58.721Z,39.27
2019-05-18T11:01:26.181Z,38.75
2019-05-18T11:03:53.584Z,39.20
2019-05-18T11:06:21.090Z,37.90
2019-05-18T11:08:48.436Z,41.14
2019-05-18T11:11:15.906Z,37.89
2019-05-18T11:13:43.338Z,37.04
2019-05-18T11:16:10.738Z,40.29
2019-05-18T11:18:40.242Z,37.35
2019-05-18T11:21:07.659Z,40.56
2019-05-18T11:23:43.328Z,38.30
2019-05-18T11:26:04.610Z,37.78
2019-05-18T11:28:31.951Z,39.36
2019-05-18T11:30:59.345Z,37.13
2019-05-18T11:33:26.777Z,37.92
2019-05-18T11:35:54.159Z,36.90
2019-05-18T11:38:21.487Z,36.85
2019-05-18T11:40:48.940Z,36.36
2019-05-18T11:43:16.265Z,37.09
2019-05-18T11:45:43.644Z,35.38
2019-05-18T11:48:11.059Z,35.87
2019-05-18T11:50:38.461Z,36.39
2019-05-18T11:53:05.786Z,35.43
2019-05-18T11:55:33.261Z,35.78
2019-05-18T11:58:00.639Z,38.56
2019-05-18T12:00:28.216Z,36.10
2019-05-18T12:02:55.685Z,35.60
2019-05-18T12:05:23.077Z,34.98
2019-05-18T12:07:50.485Z,36.36
2019-05-18T12:10:18.747Z,36.25
2019-05-18T12:12:46.499Z,35.88
2019-05-18T12:15:14.033Z,35.61
2019-05-18T12:17:41.425Z,35.36
2019-05-18T12:20:09.419Z,36.09
2019-05-18T12:22:36.789Z,35.23
2019-05-18T12:25:04.549Z,36.43
2019-05-18T12:27:31.927Z,36.07
2019-05-18T12:29:59.387Z,35.78
2019-05-18T12:32:26.848Z,37.36
2019-05-18T12:34:54.205Z,37.26
2019-05-18T12:37:22.264Z,38.57
2019-05-18T12:39:50.946Z,36.22
2019-05-18T12:42:18.306Z,37.75
2019-05-18T12:44:45.736Z,36.99
2019-05-18T12:47:14.440Z,35.70
2019-05-18T12:49:42.139Z,35.51
2019-05-18T12:52:09.641Z,36.87
2019-05-18T12:54:46.123Z,37.82
2019-05-18T12:57:06.555Z,34.77
2019-05-18T12:59:33.933Z,36.42
2019-05-18T13:02:01.350Z,36.59
2019-05-18T13:04:28.802Z,35.98
2019-05-18T13:06:56.207Z,35.25
2019-05-18T13:09:23.872Z,36.91
2019-05-18T13:11:51.405Z,35.41
2019-05-18T13:14:18.797Z,35.36
2019-05-18T13:16:46.241Z,35.32
2019-05-18T13:19:13.604Z,40.25
2019-05-18T13:21:40.947Z,39.69
2019-05-18T13:24:08.362Z,38.73
2019-05-18T13:26:35.791Z,38.84
2019-05-18T13:29:03.216Z,36.68
2019-05-18T13:31:30.646Z,38.08
2019-05-18T13:33:58.003Z,38.84
2019-05-18T13:36:25.489Z,39.08
2019-05-18T13:38:52.866Z,37.68
2019-05-18T13:41:20.231Z,40.68
2019-05-18T13:43:47.595Z,40.36
2019-05-18T13:46:15.028Z,39.91
2019-05-18T13:48:42.364Z,37.39
2019-05-18T13:51:09.711Z,38.56
2019-05-18T13:53:37.136Z,35.57
2019-05-18T13:56:04.531Z,34.92
2019-05-18T13:58:31.952Z,36.00
2019-05-18T14:00:59.408Z,35.26
2019-05-18T14:03:26.760Z,35.02
2019-05-18T14:05:54.713Z,35.14
2019-05-18T14:08:23.240Z,34.46
2019-05-18T14:10:50.741Z,34.61
2019-05-18T14:13:18.105Z,34.96
2019-05-18T14:15:46.334Z,34.33
2019-05-18T14:18:13.683Z,36.72
2019-05-18T14:20:41.017Z,38.28
2019-05-18T14:23:08.465Z,37.82
2019-05-18T14:25:36.926Z,37.02
2019-05-18T14:28:04.286Z,35.59
2019-05-18T14:30:31.636Z,36.23
2019-05-18T14:32:58.961Z,37.64
2019-05-18T14:35:26.421Z,37.14
2019-05-18T14:37:53.827Z,37.66
2019-05-18T14:40:21.228Z,37.25
2019-05-18T14:42:48.566Z,35.96
2019-05-18T14:45:16.728Z,36.10
2019-05-18T14:47:44.128Z,36.51
2019-05-18T14:50:11.669Z,36.13
2019-05-18T14:52:39.173Z,36.08
2019-05-18T14:55:07.125Z,35.42
2019-05-18T14:57:34.679Z,34.66
2019-05-18T15:00:02.642Z,34.40
2019-05-18T15:02:30.176Z,34.66
2019-05-18T15:04:58.425Z,35.54
2019-05-18T15:07:25.925Z,34.67
2019-05-18T15:09:53.415Z,36.15
2019-05-18T15:12:20.814Z,36.08
2019-05-18T15:14:48.370Z,35.48
2019-05-18T15:17:15.752Z,36.87
2019-05-18T15:19:43.029Z,36.31
2019-05-18T15:22:10.396Z,37.14
2019-05-18T15:24:37.712Z,37.87
2019-05-18T15:27:05.078Z,39.89
2019-05-18T15:29:32.457Z,41.52
2019-05-18T15:31:59.803Z,42.03
2019-05-18T15:34:27.160Z,40.56
2019-05-18T15:36:54.552Z,37.25
2019-05-18T15:39:21.862Z,34.14
2019-05-18T15:41:49.654Z,34.98
2019-05-18T15:44:17.082Z,34.98
2019-05-18T15:46:44.407Z,37.91
2019-05-18T15:49:11.729Z,40.53
2019-05-18T15:51:39.270Z,43.44
2019-05-18T15:54:06.741Z,38.50
2019-05-18T15:56:34.076Z,40.85
2019-05-18T15:59:01.566Z,37.40
2019-05-18T16:01:28.913Z,36.85
2019-05-18T16:03:58.767Z,35.39
2019-05-18T16:06:26.457Z,35.48
2019-05-18T16:08:53.855Z,35.95
2019-05-18T16:11:21.826Z,35.45
2019-05-18T16:13:49.289Z,39.28
2019-05-18T16:16:16.671Z,38.78
2019-05-18T16:18:44.011Z,39.07
2019-05-18T16:21:11.405Z,35.14
2019-05-18T16:23:38.792Z,33.63
2019-05-18T16:26:20.789Z,34.72
2019-05-18T16:28:35.488Z,34.21
2019-05-18T16:31:02.812Z,34.39
2019-05-18T16:33:30.199Z,34.28
2019-05-18T16:35:57.634Z,35.17
2019-05-18T16:38:25.033Z,35.12
2019-05-18T16:40:52.423Z,35.27
2019-05-18T16:43:19.862Z,34.60
2019-05-18T16:45:47.251Z,34.92
2019-05-18T16:48:14.812Z,35.49
2019-05-18T16:50:42.349Z,35.23
2019-05-18T16:53:09.726Z,36.54
2019-05-18T17:01:15.206Z,38.19
2019-05-18T17:03:42.682Z,38.57
2019-05-18T17:06:10.075Z,39.53
2019-05-18T17:08:37.502Z,40.65
2019-05-18T17:11:04.887Z,41.68
2019-05-18T17:13:32.302Z,38.41
2019-05-18T17:15:59.738Z,39.65
2019-05-18T17:18:27.117Z,39.00
2019-05-18T17:20:54.463Z,37.64
2019-05-18T17:23:21.880Z,40.14
2019-05-18T17:25:49.220Z,39.78
2019-05-18T17:28:16.665Z,40.16
2019-05-18T17:30:44.154Z,44.39
2019-05-18T17:33:11.522Z,46.69
2019-05-18T17:35:38.883Z,50.49
2019-05-18T17:38:06.246Z,50.59
2019-05-18T17:40:33.868Z,49.97
2019-05-18T17:43:01.380Z,50.57
2019-05-18T17:45:28.867Z,51.09
2019-05-18T17:47:56.319Z,51.58
2019-05-18T17:50:23.747Z,51.89
2019-05-18T17:52:51.256Z,52.58
2019-05-18T17:55:19.477Z,53.39
2019-05-18T17:57:47.262Z,52.07
2019-05-18T18:00:15.642Z,49.09
2019-05-18T18:02:43.302Z,50.03
2019-05-18T18:05:11.169Z,52.85
2019-05-18T18:07:38.639Z,52.75
2019-05-18T18:10:07.468Z,54.23
2019-05-18T18:12:34.819Z,55.57
2019-05-18T18:15:02.482Z,55.42
2019-05-18T18:17:29.937Z,52.84
2019-05-18T18:19:57.379Z,54.44
2019-05-18T18:22:24.867Z,55.57
2019-05-18T18:24:52.304Z,55.99
2019-05-18T18:27:25.407Z,55.66
2019-05-18T18:29:49.015Z,57.18
2019-05-18T18:32:16.504Z,55.90
2019-05-18T18:34:43.886Z,57.78
2019-05-18T18:37:11.321Z,54.62
2019-05-18T18:39:38.847Z,57.42
2019-05-18T18:42:06.272Z,55.89
2019-05-18T18:44:35.204Z,53.17
2019-05-18T18:47:03.065Z,53.84
2019-05-18T18:49:30.507Z,52.30
2019-05-18T18:52:00.005Z,53.63
2019-05-18T18:54:27.573Z,53.04
2019-05-18T18:56:54.983Z,54.84
2019-05-18T18:59:22.549Z,57.48
2019-05-18T19:01:49.986Z,56.01
2019-05-18T19:04:17.340Z,56.00
2019-05-18T19:06:44.778Z,52.75
2019-05-18T19:09:17.361Z,55.24
2019-05-18T19:11:49.687Z,56.19
2019-05-18T19:14:18.266Z,55.81
2019-05-18T19:16:50.232Z,55.32
2019-05-18T19:19:17.702Z,55.52
2019-05-18T19:21:45.984Z,58.30
2019-05-18T19:24:14.656Z,57.69
2019-05-18T19:26:45.136Z,55.01
2019-05-18T19:29:13.763Z,55.18
2019-05-18T19:31:48.747Z,57.38
2019-05-18T19:34:17.273Z,56.76
2019-05-18T19:36:45.742Z,56.67
2019-05-18T19:39:13.233Z,58.55
2019-05-18T19:41:43.560Z,60.59
2019-05-18T19:44:10.979Z,59.95
2019-05-18T19:49:27.828Z,59.03
2019-05-18T19:51:59.535Z,56.63
2019-05-18T19:54:28.017Z,56.09
2019-05-18T19:56:56.902Z,56.69
2019-05-18T19:59:28.936Z,56.72
2019-05-18T20:01:56.674Z,58.79
2019-05-18T20:04:25.212Z,58.64
2019-05-18T20:06:53.943Z,59.03
2019-05-18T20:09:21.462Z,60.46
2019-05-18T20:11:51.128Z,60.48
2019-05-18T20:14:18.555Z,62.00
2019-05-18T20:16:47.334Z,60.80
2019-05-18T20:19:17.588Z,61.15
2019-05-18T20:24:47.255Z,59.91
2019-05-18T20:27:14.805Z,62.53
2019-05-18T20:29:42.737Z,60.74
2019-05-18T20:32:10.101Z,62.83
2019-05-18T20:34:38.802Z,62.08
2019-05-18T20:37:06.730Z,61.74
2019-05-18T20:39:34.136Z,60.69
2019-05-18T20:42:01.846Z,60.40
2019-05-18T20:44:30.509Z,62.20
2019-05-18T20:46:57.979Z,61.58
2019-05-18T20:49:25.632Z,61.92
2019-05-18T20:51:53.201Z,60.63
2019-05-18T20:54:20.516Z,60.83
2019-05-18T20:56:49.092Z,60.76
2019-05-18T20:59:16.547Z,61.21
2019-05-18T21:01:53.814Z,60.61
2019-05-18T21:04:21.224Z,59.71
2019-05-18T21:06:48.745Z,61.58
2019-05-18T21:09:16.121Z,59.87
2019-05-18T21:11:43.545Z,60.27
2019-05-18T21:14:11.943Z,63.09
2019-05-18T21:16:39.307Z,62.90
2019-05-18T21:19:06.827Z,62.65
2019-05-18T21:21:34.298Z,64.32
2019-05-18T21:24:02.143Z,64.24
2019-05-18T21:26:29.541Z,64.66
2019-05-18T21:29:00.772Z,65.02
2019-05-18T21:31:26.249Z,65.40
2019-05-18T21:33:54.007Z,64.17
2019-05-18T21:36:21.345Z,63.75
2019-05-18T21:38:48.972Z,62.09
2019-05-18T21:41:16.376Z,62.28
2019-05-18T21:43:43.749Z,62.17
2019-05-18T21:46:11.080Z,62.78
2019-05-18T21:48:38.466Z,62.39
2019-05-18T21:51:05.800Z,62.17
2019-05-18T21:53:33.198Z,63.28
2019-05-18T21:56:00.606Z,64.24
2019-05-18T21:58:28.002Z,65.50
2019-05-18T22:00:58.058Z,65.65
2019-05-18T22:03:25.542Z,65.19
2019-05-18T22:05:52.977Z,64.40
2019-05-18T22:08:20.398Z,64.32
2019-05-18T22:10:47.948Z,63.30
2019-05-18T22:13:15.268Z,64.36
2019-05-18T22:15:42.605Z,65.04
2019-05-18T22:18:23.627Z,64.50
2019-05-18T22:20:43.591Z,64.78
2019-05-18T22:23:08.467Z,65.92
2019-05-18T22:25:35.846Z,65.95
2019-05-18T22:28:03.206Z,67.53
2019-05-18T22:30:30.575Z,66.25
2019-05-18T22:32:57.946Z,66.51
2019-05-18T22:35:25.286Z,67.79
2019-05-18T22:37:52.687Z,68.44
2019-05-18T22:40:20.135Z,69.42
2019-05-18T22:42:47.475Z,67.43
2019-05-18T22:45:14.892Z,65.88
2019-05-18T22:47:42.292Z,63.94
2019-05-18T22:50:11.320Z,68.39
2019-05-18T22:52:38.685Z,68.17
2019-05-18T22:55:06.175Z,66.22
2019-05-18T22:57:33.499Z,64.86
2019-05-18T23:00:00.818Z,65.91
2019-05-18T23:02:28.228Z,66.68
2019-05-18T23:04:55.595Z,68.52
2019-05-18T23:07:22.950Z,68.24
2019-05-18T23:09:50.326Z,66.84
2019-05-18T23:12:17.684Z,70.42
2019-05-18T23:14:44.991Z,70.38
2019-05-18T23:17:12.370Z,70.27
2019-05-18T23:19:39.818Z,68.91
2019-05-18T23:22:07.149Z,68.76
2019-05-18T23:24:34.606Z,69.43
2019-05-18T23:27:01.922Z,67.17
2019-05-18T23:29:29.242Z,67.71
2019-05-18T23:31:56.592Z,66.97
2019-05-18T23:34:23.910Z,66.94
2019-05-18T23:36:51.250Z,68.23
2019-05-18T23:39:18.645Z,67.91
2019-05-18T23:41:45.986Z,67.90
2019-05-18T23:44:13.331Z,68.22
2019-05-18T23:46:40.700Z,68.67
2019-05-18T23:49:10.754Z,71.03
2019-05-18T23:51:37.303Z,70.41
2019-05-18T23:54:04.682Z,69.83
2019-05-18T23:56:32.052Z,71.36
2019-05-18T23:58:59.362Z,69.43
